Time;durP1;ratioP1;P1;durP2;ratioP2;P2;SDS_P1;SDS_P2;PMS_P1;PMS_P2;Temp;Humidity;BMP_temperature;BMP_pressure;BME280_temperature;BME280_humidity;BME280_pressure;Samples;Min_cycle;Max_cycle;Signal;HPM_P1;HPM_P2
2023/06/13 00:01:54;;;;;;;5.43;5.03;;;;;;;18.30;62.90;98194.63;4143938;28;20580;-54
2023/06/13 00:04:02;;;;;;;5.53;5.13;;;;;;;18.26;63.25;98197.19;4143459;28;20586;-53
2023/06/13 00:06:04;;;;;;;7.90;5.15;;;;;;;18.24;63.15;98198.66;4141889;28;20256;-52
2023/06/13 00:08:06;;;;;;;5.53;5.05;;;;;;;18.18;63.45;98192.38;4143560;28;20213;-49
2023/06/13 00:10:08;;;;;;;5.15;4.65;;;;;;;18.13;63.43;98202.75;4143142;28;20277;-52
2023/06/13 00:12:10;;;;;;;5.55;5.15;;;;;;;18.07;63.47;98201.19;4143637;28;20248;-51
2023/06/13 00:14:12;;;;;;;5.95;5.45;;;;;;;18.05;63.09;98203.47;4148250;28;20268;-51
2023/06/13 00:16:15;;;;;;;5.90;5.43;;;;;;;17.96;63.08;98202.50;4141751;28;20213;-52
2023/06/13 00:18:19;;;;;;;5.93;5.43;;;;;;;17.93;63.51;98203.13;4143755;28;20232;-50
2023/06/13 00:20:21;;;;;;;5.03;4.63;;;;;;;17.90;63.61;98203.72;4136407;28;20210;-50
2023/06/13 00:22:24;;;;;;;5.88;5.32;;;;;;;17.83;64.08;98208.84;4166239;28;20247;-51
2023/06/13 00:24:29;;;;;;;5.75;5.25;;;;;;;17.81;64.69;98205.56;4143136;28;20225;-49
2023/06/13 00:26:31;;;;;;;6.00;4.57;;;;;;;17.81;65.02;98209.16;4137044;28;20739;-52
2023/06/13 00:28:32;;;;;;;4.97;4.68;;;;;;;17.83;65.24;98217.13;4170319;28;20652;-50
2023/06/13 00:30:34;;;;;;;5.35;4.95;;;;;;;17.85;65.25;98209.38;4143526;28;20205;-50
2023/06/13 00:32:36;;;;;;;5.65;5.13;;;;;;;17.79;65.87;98199.50;4126179;28;20654;-50
2023/06/13 00:34:38;;;;;;;5.53;5.13;;;;;;;17.68;66.31;98203.56;4167366;28;20297;-50
2023/06/13 00:36:43;;;;;;;5.85;5.35;;;;;;;17.57;66.42;98204.88;4169250;28;20203;-49
2023/06/13 00:38:49;;;;;;;6.65;6.13;;;;;;;17.57;66.68;98197.41;4137224;28;20222;-51
2023/06/13 00:40:51;;;;;;;6.63;6.13;;;;;;;17.57;66.77;98200.16;4139920;28;20683;-50
2023/06/13 00:42:53;;;;;;;5.63;5.22;;;;;;;17.54;66.44;98205.47;4141657;28;20201;-50
2023/06/13 00:44:55;;;;;;;5.22;4.82;;;;;;;17.57;66.44;98202.09;4167650;28;21086;-50
2023/06/13 00:46:57;;;;;;;6.05;5.60;;;;;;;17.58;65.75;98201.00;4121989;28;20590;-51
2023/06/13 00:48:59;;;;;;;6.07;5.57;;;;;;;17.61;65.10;98197.59;4137869;28;20210;-52
2023/06/13 00:51:02;;;;;;;5.43;5.00;;;;;;;17.56;64.65;98192.16;4135763;28;20252;-49
2023/06/13 00:53:09;;;;;;;5.35;4.97;;;;;;;17.54;64.02;98194.41;4166558;28;20275;-50
2023/06/13 00:55:11;;;;;;;5.80;4.45;;;;;;;17.50;64.08;98193.34;4136388;28;20224;-52
2023/06/13 00:57:14;;;;;;;5.18;4.78;;;;;;;17.53;63.83;98192.78;4121463;28;20210;-50
2023/06/13 00:59:17;;;;;;;4.50;4.20;;;;;;;17.53;63.47;98187.25;4140028;28;20698;-50
2023/06/13 01:01:19;;;;;;;4.78;4.15;;;;;;;17.52;63.36;98202.19;4133845;28;20205;-50
2023/06/13 01:03:21;;;;;;;5.90;5.40;;;;;;;17.52;63.27;98202.19;4125068;28;20201;-52
2023/06/13 01:05:28;;;;;;;5.10;4.72;;;;;;;17.50;63.01;98196.13;4140879;28;20229;-51
2023/06/13 01:07:34;;;;;;;4.32;4.03;;;;;;;17.45;62.52;98197.03;4150718;28;20213;-50
2023/06/13 01:09:36;;;;;;;4.72;4.32;;;;;;;17.42;62.61;98202.34;4144738;28;20206;-49
2023/06/13 01:11:43;;;;;;;5.25;4.85;;;;;;;17.43;62.20;98198.47;4142608;28;20217;-50
2023/06/13 01:13:52;;;;;;;4.88;4.38;;;;;;;17.43;61.87;98198.47;4167597;28;20223;-49
2023/06/13 01:15:59;;;;;;;4.93;4.57;;;;;;;17.32;60.37;98203.31;4150423;28;20213;-50
2023/06/13 01:18:03;;;;;;;5.55;5.05;;;;;;;17.44;61.16;98200.13;4144318;28;20208;-50
2023/06/13 01:20:09;;;;;;;7.25;4.22;;;;;;;17.31;60.87;98195.34;4141459;28;20214;-49
2023/06/13 01:22:21;;;;;;;4.03;3.72;;;;;;;17.37;61.01;98199.66;4170601;28;20690;-51
2023/06/13 01:25:04;;;;;;;6.13;4.93;;;;;;;17.35;60.87;98201.88;4147307;28;20232;-50
2023/06/13 01:27:06;;;;;;;4.60;4.07;;;;;;;17.40;61.26;98199.09;4145101;28;20205;-50
2023/06/13 01:29:09;;;;;;;5.53;5.13;;;;;;;17.41;61.35;98195.19;4132390;28;20245;-50
2023/06/13 01:31:15;;;;;;;4.45;4.15;;;;;;;17.39;61.35;98200.22;4143250;28;20201;-50
2023/06/13 01:33:17;;;;;;;4.72;4.20;;;;;;;17.39;61.53;98197.44;4143847;28;20752;-50
2023/06/13 01:35:20;;;;;;;5.53;5.13;;;;;;;17.36;61.72;98198.00;4146333;28;20244;-50
2023/06/13 01:37:21;;;;;;;4.13;3.78;;;;;;;17.36;61.77;98198.00;4169751;28;22410;-50
2023/06/13 01:39:23;;;;;;;5.15;4.80;;;;;;;17.32;61.83;98192.25;4154930;28;20232;-50
2023/06/13 01:41:25;;;;;;;4.60;3.85;;;;;;;17.35;61.64;98190.81;4144489;28;20217;-50
2023/06/13 01:43:26;;;;;;;3.50;3.30;;;;;;;17.31;61.42;98189.81;4135357;28;20806;-52
2023/06/13 01:45:28;;;;;;;14.70;4.15;;;;;;;17.33;61.33;98191.13;4137252;28;20275;-49
2023/06/13 01:47:41;;;;;;;5.30;4.90;;;;;;;17.25;61.01;98191.00;4136485;28;20244;-50
2023/06/13 01:49:43;;;;;;;4.13;3.83;;;;;;;17.27;60.72;98194.28;4169945;28;20235;-50
2023/06/13 01:52:01;;;;;;;4.20;3.80;;;;;;;17.32;60.76;98183.13;4168274;28;20204;-51
2023/06/13 01:54:06;;;;;;;3.95;3.65;;;;;;;17.29;59.79;98180.97;4142931;28;20245;-51
2023/06/13 01:56:12;;;;;;;3.60;3.30;;;;;;;17.29;59.97;98184.56;4145250;28;20230;-52
2023/06/13 01:58:23;;;;;;;3.90;3.60;;;;;;;17.17;59.17;98178.66;4145472;28;20209;-51
2023/06/13 02:00:24;;;;;;;4.75;3.47;;;;;;;17.22;59.31;98175.81;4153741;28;20216;-50
2023/06/13 02:02:26;;;;;;;5.80;3.58;;;;;;;17.20;58.65;98177.25;4144892;28;20614;-50
2023/06/13 02:04:28;;;;;;;4.20;3.78;;;;;;;17.24;58.78;98172.72;4151807;28;20228;-50
2023/06/13 02:06:30;;;;;;;6.60;3.97;;;;;;;17.26;58.75;98176.84;4145131;28;20213;-50
2023/06/13 02:08:33;;;;;;;5.68;3.80;;;;;;;17.24;58.73;98172.72;4153987;28;20206;-52
2023/06/13 02:10:35;;;;;;;4.05;3.75;;;;;;;17.27;58.93;98169.38;4135102;28;20266;-50
2023/06/13 02:12:40;;;;;;;2.70;2.50;;;;;;;17.27;59.07;98172.16;4140918;28;20676;-49
2023/06/13 02:14:42;;;;;;;3.97;3.63;;;;;;;17.31;59.36;98175.97;4168766;28;20219;-50
2023/06/13 02:16:44;;;;;;;3.60;3.30;;;;;;;17.31;59.61;98173.22;4144066;28;20212;-51
2023/06/13 02:18:47;;;;;;;6.78;3.60;;;;;;;17.26;59.84;98170.50;4172616;28;20236;-50
2023/06/13 02:20:49;;;;;;;3.97;3.67;;;;;;;17.26;60.03;98164.97;4143734;28;20685;-50
2023/06/13 02:22:51;;;;;;;5.15;4.75;;;;;;;17.22;60.27;98166.69;4144727;28;20210;-50
2023/06/13 02:24:53;;;;;;;5.50;3.75;;;;;;;17.23;60.30;98165.56;4140681;28;20231;-51
2023/06/13 02:26:55;;;;;;;4.47;4.07;;;;;;;17.21;60.83;98162.28;4141174;28;20209;-51
2023/06/13 02:28:57;;;;;;;4.82;4.20;;;;;;;17.19;60.83;98164.53;4168861;28;20242;-50
2023/06/13 02:30:59;;;;;;;5.13;3.97;;;;;;;17.20;61.10;98166.19;4170516;28;20228;-49
2023/06/13 02:33:01;;;;;;;3.90;3.60;;;;;;;17.22;61.08;98163.94;4154048;28;20221;-50
2023/06/13 02:35:03;;;;;;;5.35;4.95;;;;;;;16.87;60.78;98172.78;4135764;28;20229;-50
2023/06/13 02:37:05;;;;;;;3.80;3.50;;;;;;;16.96;61.08;98170.16;4137368;28;20213;-51
2023/06/13 02:39:08;;;;;;;4.32;3.97;;;;;;;16.96;60.96;98164.63;4121330;28;20654;-51
2023/06/13 02:41:11;;;;;;;5.43;4.78;;;;;;;16.99;61.20;98175.91;4170015;28;20250;-51
2023/06/13 02:43:13;;;;;;;4.28;3.88;;;;;;;16.98;61.51;98166.00;4144836;28;20205;-50
2023/06/13 02:45:15;;;;;;;5.07;4.07;;;;;;;16.87;62.94;98167.25;4145153;28;20229;-50
2023/06/13 02:47:19;;;;;;;5.30;4.80;;;;;;;16.80;63.59;98160.44;4154642;28;20221;-52
2023/06/13 02:49:21;;;;;;;4.28;4.00;;;;;;;16.70;64.27;98161.41;4136406;28;20202;-50
2023/06/13 02:51:22;;;;;;;3.92;3.63;;;;;;;16.63;64.91;98155.44;4138508;28;20210;-50
2023/06/13 02:53:27;;;;;;;5.57;5.03;;;;;;;16.57;65.66;98162.13;4143380;28;20271;-50
2023/06/13 02:55:29;;;;;;;5.00;4.60;;;;;;;16.48;66.40;98163.94;4171613;28;20212;-49
2023/06/13 02:57:31;;;;;;;4.60;4.30;;;;;;;16.36;67.00;98163.50;4140879;28;20209;-49
2023/06/13 02:59:33;;;;;;;5.32;4.93;;;;;;;16.24;67.73;98163.09;4144666;28;20288;-49
2023/06/13 03:01:34;;;;;;;5.60;5.10;;;;;;;16.16;68.01;98160.19;4141975;28;20210;-50
2023/06/13 03:03:39;;;;;;;4.43;4.13;;;;;;;16.14;68.59;98162.41;4168846;28;20215;-51
2023/06/13 03:05:42;;;;;;;4.80;4.45;;;;;;;16.07;69.06;98162.75;4143400;28;20212;-50
2023/06/13 03:07:46;;;;;;;7.07;4.93;;;;;;;15.99;69.06;98166.19;4154850;28;20212;-49
2023/06/13 03:09:47;;;;;;;4.75;4.35;;;;;;;16.01;69.72;98163.94;4169887;28;20200;-49
2023/06/13 03:11:49;;;;;;;5.00;4.50;;;;;;;15.85;69.96;98170.75;4140222;28;20205;-51
2023/06/13 03:13:51;;;;;;;4.65;4.30;;;;;;;15.82;70.16;98171.31;4129571;28;20773;-50
2023/06/13 03:15:54;;;;;;;5.32;4.85;;;;;;;15.79;70.10;98171.06;4137802;28;20214;-52
2023/06/13 03:17:56;;;;;;;5.63;5.03;;;;;;;15.72;70.56;98168.69;4145603;28;20263;-50
2023/06/13 03:19:59;;;;;;;4.82;4.38;;;;;;;15.61;70.69;98175.41;4143518;28;20781;-50
2023/06/13 03:22:06;;;;;;;4.75;4.45;;;;;;;15.62;70.80;98177.03;4150688;28;20260;-50
2023/06/13 03:24:07;;;;;;;5.57;5.15;;;;;;;15.60;70.98;98173.75;4166642;28;20236;-51
2023/06/13 03:26:10;;;;;;;5.35;4.85;;;;;;;15.61;71.11;98172.63;4140818;28;20217;-50
2023/06/13 03:28:12;;;;;;;19.30;5.45;;;;;;;15.56;71.29;98177.38;4140909;28;20236;-50
2023/06/13 03:30:15;;;;;;;4.60;4.30;;;;;;;15.50;71.64;98184.06;4143679;28;20264;-51
2023/06/13 03:32:17;;;;;;;4.55;4.25;;;;;;;15.47;72.15;98185.47;4146036;28;20633;-51
2023/06/13 03:34:24;;;;;;;4.70;4.30;;;;;;;15.49;71.99;98182.41;4144826;28;20237;-50
2023/06/13 03:36:26;;;;;;;4.75;4.35;;;;;;;15.47;72.26;98187.38;4170190;28;20786;-50
2023/06/13 03:38:28;;;;;;;5.65;5.13;;;;;;;15.43;72.20;98181.63;4136638;28;20205;-50
2023/06/13 03:40:30;;;;;;;5.05;4.65;;;;;;;15.46;72.49;98192.09;4143334;28;20336;-50
2023/06/13 03:42:31;;;;;;;6.10;4.78;;;;;;;15.41;72.90;98180.25;4143865;28;20239;-50
2023/06/13 03:44:33;;;;;;;8.27;5.03;;;;;;;15.37;72.97;98179.22;4154188;28;20233;-50
2023/06/13 03:46:36;;;;;;;5.60;5.05;;;;;;;15.30;73.22;98196.03;4167520;28;20200;-50
2023/06/13 03:48:38;;;;;;;5.78;5.18;;;;;;;15.24;73.25;98202.69;4168334;28;20250;-49
2023/06/13 03:50:40;;;;;;;4.75;4.15;;;;;;;15.17;73.13;98196.69;4139128;28;20210;-49
2023/06/13 03:52:42;;;;;;;5.35;4.53;;;;;;;15.17;73.38;98196.69;4143760;28;20208;-50
2023/06/13 03:54:43;;;;;;;4.75;4.35;;;;;;;15.14;73.43;98202.78;4136126;28;20763;-50
2023/06/13 03:56:45;;;;;;;7.05;5.00;;;;;;;15.17;73.63;98204.97;4135920;28;20205;-50
2023/06/13 03:58:47;;;;;;;4.88;4.47;;;;;;;15.21;73.46;98202.44;4137249;28;20283;-50
2023/06/13 04:00:50;;;;;;;5.07;4.68;;;;;;;15.18;73.93;98209.38;4140629;28;20217;-50
2023/06/13 04:02:55;;;;;;;5.68;5.20;;;;;;;15.20;74.17;98207.16;4169669;28;20204;-50
2023/06/13 04:04:57;;;;;;;4.93;4.47;;;;;;;15.20;74.01;98209.91;4144457;28;20323;-51
2023/06/13 04:07:04;;;;;;;5.22;4.55;;;;;;;15.23;73.92;98214.84;4169963;28;20498;-49
2023/06/13 04:09:05;;;;;;;5.97;4.75;;;;;;;15.22;74.06;98212.41;4137080;28;20248;-50
2023/06/13 04:11:07;;;;;;;5.25;4.85;;;;;;;15.21;74.28;98216.22;4150314;28;20209;-50
2023/06/13 04:13:09;;;;;;;5.18;4.78;;;;;;;15.18;74.38;98214.91;4127952;28;20643;-50
2023/06/13 04:15:11;;;;;;;5.32;4.82;;;;;;;15.18;74.19;98214.91;4119501;28;20289;-52
2023/06/13 04:17:12;;;;;;;4.97;4.63;;;;;;;15.14;74.13;98224.84;4142398;28;20206;-52
2023/06/13 04:19:18;;;;;;;9.13;4.82;;;;;;;15.24;73.96;98223.94;4137941;28;20758;-50
2023/06/13 04:21:21;;;;;;;5.68;5.18;;;;;;;15.23;74.01;98227.81;4135247;28;20708;-51
2023/06/13 04:23:25;;;;;;;5.22;4.82;;;;;;;15.17;73.88;98224.25;4138042;28;20649;-50
2023/06/13 04:25:27;;;;;;;5.35;4.85;;;;;;;15.18;73.83;98225.94;4169970;28;20861;-50
2023/06/13 04:27:29;;;;;;;5.63;5.13;;;;;;;15.23;73.64;98227.81;4123790;28;20266;-50
2023/06/13 04:29:31;;;;;;;4.53;4.13;;;;;;;15.20;73.37;98233.88;4153397;28;20605;-51
2023/06/13 04:31:35;;;;;;;7.07;5.03;;;;;;;15.30;73.28;98225.56;4168981;28;20207;-51
2023/06/13 04:33:39;;;;;;;5.50;5.00;;;;;;;15.25;73.08;98231.94;4135636;28;20273;-50
2023/06/13 04:35:44;;;;;;;9.43;4.13;;;;;;;15.16;72.31;98233.63;4141153;28;20205;-50
2023/06/13 04:37:46;;;;;;;3.97;3.47;;;;;;;15.37;71.67;98235.16;4167340;28;20204;-50
2023/06/13 04:39:48;;;;;;;7.85;3.65;;;;;;;15.40;70.92;98237.38;4143213;28;20233;-52
2023/06/13 04:41:55;;;;;;;4.40;3.85;;;;;;;15.37;70.28;98246.19;4142417;28;20252;-49
2023/06/13 04:43:57;;;;;;;4.45;4.07;;;;;;;15.38;69.35;98241.50;4135165;28;20281;-50
2023/06/13 04:46:03;;;;;;;4.68;4.28;;;;;;;15.41;69.21;98247.28;4167983;28;20255;-49
2023/06/13 04:48:13;;;;;;;4.10;3.72;;;;;;;15.46;68.78;98246.41;4157909;28;20212;-52
2023/06/13 04:50:15;;;;;;;6.13;3.65;;;;;;;15.50;68.74;98245.53;4144709;28;20217;-49
2023/06/13 04:52:18;;;;;;;3.55;3.25;;;;;;;15.63;67.73;98244.88;4143883;28;20211;-52
2023/06/13 04:54:23;;;;;;;4.88;3.67;;;;;;;15.63;67.77;98250.41;4144372;28;20229;-49
2023/06/13 04:56:28;;;;;;;4.80;4.30;;;;;;;15.68;67.46;98258.63;4141951;28;20209;-49
2023/06/13 04:58:30;;;;;;;3.70;3.28;;;;;;;15.78;67.22;98266.00;4147910;28;20922;-52
2023/06/13 05:00:32;;;;;;;7.78;3.35;;;;;;;15.80;67.16;98256.34;4172412;28;20223;-50
2023/06/13 05:02:35;;;;;;;4.45;3.70;;;;;;;15.90;67.00;98255.41;4174884;28;20215;-50
2023/06/13 05:04:37;;;;;;;4.13;3.45;;;;;;;15.94;66.66;98261.97;4145257;28;20868;-49
2023/06/13 05:06:38;;;;;;;3.33;2.92;;;;;;;16.00;66.50;98256.13;4145099;28;20255;-51
2023/06/13 05:08:40;;;;;;;4.03;3.72;;;;;;;15.96;66.48;98260.59;4173188;28;20215;-50
2023/06/13 05:10:42;;;;;;;4.97;3.63;;;;;;;16.00;66.47;98250.63;4146293;28;20205;-50
2023/06/13 05:12:43;;;;;;;6.03;2.90;;;;;;;15.99;67.29;98262.78;4136709;28;20206;-49
2023/06/13 05:14:45;;;;;;;4.57;4.18;;;;;;;16.17;66.37;98267.53;4169100;28;20606;-50
2023/06/13 05:16:47;;;;;;;3.65;3.35;;;;;;;16.16;66.13;98257.63;4141453;28;20209;-50
2023/06/13 05:18:49;;;;;;;6.45;3.63;;;;;;;16.35;65.42;98264.03;4131555;28;20252;-51
2023/06/13 05:20:51;;;;;;;3.92;3.33;;;;;;;16.38;64.81;98257.97;4141491;28;20233;-51
2023/06/13 05:22:53;;;;;;;3.33;3.08;;;;;;;16.44;64.38;98265.06;4145677;28;20260;-50
2023/06/13 05:24:59;;;;;;;5.25;3.50;;;;;;;16.55;64.20;98263.84;4143391;28;20256;-51
2023/06/13 05:27:01;;;;;;;6.40;3.33;;;;;;;16.71;65.44;98262.56;4145618;28;20201;-50
2023/06/13 05:29:05;;;;;;;2.40;2.20;;;;;;;16.90;63.41;98260.63;4138536;28;20248;-49
2023/06/13 05:31:07;;;;;;;3.53;3.20;;;;;;;16.95;62.88;98268.84;4145957;28;20205;-51
2023/06/13 05:33:14;;;;;;;3.13;2.92;;;;;;;17.13;62.77;98276.34;4137934;28;20659;-52
2023/06/13 05:35:15;;;;;;;2.90;2.67;;;;;;;17.27;62.08;98268.97;4155188;28;20225;-52
2023/06/13 05:37:18;;;;;;;3.97;3.35;;;;;;;17.26;62.24;98275.63;4145425;28;20202;-50
2023/06/13 05:39:20;;;;;;;5.32;3.25;;;;;;;17.35;62.31;98274.66;4168780;28;20212;-51
2023/06/13 05:41:22;;;;;;;3.72;3.42;;;;;;;17.43;60.89;98265.69;4169659;28;20211;-51
2023/06/13 05:43:24;;;;;;;3.22;2.92;;;;;;;17.55;60.96;98268.00;4144491;28;20217;-52
2023/06/13 05:45:26;;;;;;;3.28;3.08;;;;;;;17.71;62.89;98266.66;4129761;28;20202;-53
2023/06/13 05:47:28;;;;;;;4.22;2.83;;;;;;;17.90;60.56;98261.88;4147013;28;20255;-51
2023/06/13 05:49:30;;;;;;;4.22;2.95;;;;;;;17.88;60.32;98267.72;4172408;28;20234;-52
2023/06/13 05:51:32;;;;;;;3.20;2.90;;;;;;;17.99;59.68;98273.91;4174021;28;20706;-52
2023/06/13 05:53:36;;;;;;;3.47;3.15;;;;;;;18.15;59.99;98267.78;4169278;28;20201;-50
2023/06/13 05:55:38;;;;;;;4.68;3.05;;;;;;;18.10;60.07;98265.09;4168668;28;20208;-51
2023/06/13 05:57:44;;;;;;;3.55;2.90;;;;;;;18.21;59.11;98271.28;4140328;28;20210;-49
2023/06/13 05:59:46;;;;;;;3.17;2.80;;;;;;;18.48;58.28;98276.91;4170008;28;20269;-49
2023/06/13 06:01:48;;;;;;;4.15;3.08;;;;;;;18.55;59.03;98269.00;4145379;28;20754;-50
2023/06/13 06:03:49;;;;;;;3.10;2.78;;;;;;;18.85;57.58;98279.47;4168606;28;20326;-51
2023/06/13 06:05:51;;;;;;;5.10;3.03;;;;;;;19.06;57.27;98272.38;4144627;28;20209;-51
2023/06/13 06:07:53;;;;;;;6.43;3.75;;;;;;;19.29;57.36;98274.09;4168684;28;20258;-51
2023/06/13 06:09:55;;;;;;;3.88;3.08;;;;;;;19.07;56.50;98268.44;4128447;28;20206;-50
2023/06/13 06:11:57;;;;;;;4.15;2.63;;;;;;;19.32;56.20;98277.06;4139907;28;20777;-50
2023/06/13 06:13:58;;;;;;;3.60;3.30;;;;;;;19.47;54.98;98271.19;4145798;28;20229;-50
2023/06/13 06:16:00;;;;;;;4.07;2.50;;;;;;;19.64;55.55;98278.84;4139386;28;20271;-50
2023/06/13 06:18:02;;;;;;;3.33;2.97;;;;;;;19.86;54.91;98270.50;4145743;28;20217;-50
2023/06/13 06:20:06;;;;;;;4.20;3.80;;;;;;;20.02;53.85;98274.53;4144814;28;20233;-51
2023/06/13 06:22:08;;;;;;;3.35;2.88;;;;;;;19.87;54.85;98280.47;4143069;28;20647;-50
2023/06/13 06:24:09;;;;;;;3.63;3.22;;;;;;;20.14;53.78;98272.03;4170212;28;20843;-50
2023/06/13 06:26:11;;;;;;;3.25;2.90;;;;;;;20.14;54.20;98269.25;4143834;28;20679;-50
2023/06/13 06:28:13;;;;;;;2.42;2.22;;;;;;;20.27;52.97;98266.41;4145207;28;20205;-50
2023/06/13 06:30:15;;;;;;;4.70;3.00;;;;;;;20.58;52.77;98264.41;4136648;28;20203;-51
2023/06/13 06:32:17;;;;;;;6.68;2.67;;;;;;;20.37;52.20;98266.13;4153023;28;20216;-52
2023/06/13 06:34:19;;;;;;;3.13;2.92;;;;;;;20.09;51.98;98275.75;4128311;28;20577;-50
2023/06/13 06:36:22;;;;;;;3.30;3.00;;;;;;;20.26;52.54;98263.94;4144394;28;20208;-52
2023/06/13 06:38:24;;;;;;;5.22;2.95;;;;;;;20.13;51.79;98259.28;4143665;28;20259;-50
2023/06/13 06:40:26;;;;;;;5.35;2.53;;;;;;;20.24;51.52;98266.22;4143756;28;20233;-50
2023/06/13 06:42:27;;;;;;;3.20;2.38;;;;;;;20.43;51.20;98275.13;4138983;28;20210;-50
2023/06/13 06:44:29;;;;;;;5.10;2.65;;;;;;;20.79;51.24;98273.00;4138500;28;20256;-51
2023/06/13 06:46:45;;;;;;;4.43;2.65;;;;;;;20.81;49.51;98276.28;4144151;28;20250;-52
2023/06/13 06:48:46;;;;;;;5.10;2.17;;;;;;;20.80;48.82;98271.88;4138085;28;20210;-50
2023/06/13 06:50:48;;;;;;;2.83;2.60;;;;;;;20.78;49.12;98282.50;4145032;28;20217;-49
2023/06/13 06:52:50;;;;;;;3.83;2.60;;;;;;;20.84;48.44;98286.78;4144732;28;20694;-49
2023/06/13 06:54:52;;;;;;;10.50;2.47;;;;;;;21.09;48.56;98277.69;4144000;28;20233;-49
2023/06/13 06:56:53;;;;;;;6.18;2.85;;;;;;;21.10;48.01;98284.94;4167958;28;20255;-52
2023/06/13 06:58:55;;;;;;;3.25;2.50;;;;;;;21.05;47.59;98276.72;4144753;28;20212;-50
2023/06/13 07:00:57;;;;;;;3.33;2.17;;;;;;;21.13;47.49;98278.72;4144503;28;20273;-49
2023/06/13 07:02:59;;;;;;;3.28;2.70;;;;;;;20.99;46.60;98275.22;4170509;28;20212;-51
2023/06/13 07:05:02;;;;;;;3.58;2.80;;;;;;;21.21;45.92;98270.38;4144186;28;20240;-51
2023/06/13 07:07:04;;;;;;;2.67;1.90;;;;;;;21.45;45.70;98265.16;4170361;28;20803;-50
2023/06/13 07:09:05;;;;;;;2.80;2.60;;;;;;;21.37;45.52;98274.31;4138072;28;20264;-49
2023/06/13 07:11:07;;;;;;;4.22;1.85;;;;;;;21.54;45.87;98267.94;4145933;28;20209;-49
2023/06/13 07:13:09;;;;;;;4.13;2.85;;;;;;;21.35;45.58;98268.28;4142074;28;20204;-50
2023/06/13 07:15:10;;;;;;;2.55;2.22;;;;;;;21.44;45.37;98269.09;4168544;28;20243;-50
2023/06/13 07:17:12;;;;;;;8.38;3.05;;;;;;;21.25;45.29;98270.56;4137914;28;20710;-50
2023/06/13 07:19:14;;;;;;;4.50;2.30;;;;;;;21.40;45.46;98267.28;4141479;28;20214;-50
2023/06/13 07:21:15;;;;;;;2.60;2.40;;;;;;;21.84;45.75;98262.25;4143881;28;20232;-50
2023/06/13 07:23:17;;;;;;;6.88;2.13;;;;;;;21.84;44.55;98261.44;4143972;28;20213;-50
2023/06/13 07:25:19;;;;;;;3.95;2.53;;;;;;;21.43;44.44;98266.66;4142777;28;20232;-52
2023/06/13 07:27:20;;;;;;;2.67;2.20;;;;;;;21.08;44.35;98262.16;4152558;28;20303;-50
2023/06/13 07:29:22;;;;;;;3.65;2.03;;;;;;;21.38;44.71;98264.03;4154840;28;20258;-50
2023/06/13 07:31:24;;;;;;;4.60;1.90;;;;;;;21.12;44.90;98265.94;4144323;28;20196;-50
2023/06/13 07:33:26;;;;;;;3.67;2.13;;;;;;;21.26;44.36;98261.88;4144952;28;20219;-51
2023/06/13 07:35:28;;;;;;;2.60;2.40;;;;;;;21.50;44.09;98267.00;4141199;28;20212;-50
2023/06/13 07:37:31;;;;;;;1.95;1.77;;;;;;;21.39;43.95;98260.09;4145385;28;20217;-50
2023/06/13 07:39:33;;;;;;;3.40;2.15;;;;;;;21.11;44.81;98261.53;4168918;28;20216;-49
2023/06/13 07:41:36;;;;;;;4.13;1.98;;;;;;;21.57;44.64;98261.75;4142206;28;20620;-51
2023/06/13 07:43:39;;;;;;;2.10;1.90;;;;;;;21.74;44.21;98257.03;4144324;28;20204;-50
2023/06/13 07:45:41;;;;;;;3.20;1.65;;;;;;;21.71;44.29;98254.06;4145501;28;20204;-50
2023/06/13 07:47:43;;;;;;;4.05;2.17;;;;;;;21.93;43.57;98253.88;4141036;28;20278;-50
2023/06/13 07:49:44;;;;;;;4.25;1.67;;;;;;;22.26;43.22;98247.44;4138867;28;20211;-50
2023/06/13 07:51:46;;;;;;;9.93;2.22;;;;;;;21.98;43.35;98245.38;4138150;28;20213;-50
2023/06/13 07:53:48;;;;;;;3.08;1.77;;;;;;;22.31;43.21;98241.66;4135691;28;20228;-50
2023/06/13 07:55:51;;;;;;;3.78;2.47;;;;;;;22.34;42.37;98242.97;4143101;28;20205;-50
2023/06/13 07:57:54;;;;;;;12.88;2.40;;;;;;;22.62;41.84;98260.94;4138867;28;20335;-52
2023/06/13 08:00:01;;;;;;;3.20;1.90;;;;;;;22.63;41.68;98248.66;4139327;28;20251;-51
2023/06/13 08:02:03;;;;;;;3.88;2.25;;;;;;;22.29;41.36;98245.94;4142623;28;20212;-51
2023/06/13 08:04:05;;;;;;;2.38;2.17;;;;;;;22.37;42.61;98247.91;4137682;28;20300;-50
2023/06/13 08:06:07;;;;;;;2.42;2.25;;;;;;;22.56;42.11;98248.38;4139004;28;20224;-50
2023/06/13 08:08:09;;;;;;;9.90;2.70;;;;;;;22.43;41.50;98244.63;4142687;28;20675;-50
2023/06/13 08:10:10;;;;;;;4.82;2.35;;;;;;;22.39;42.19;98235.25;4135090;28;20735;-51
2023/06/13 08:12:12;;;;;;;3.60;2.53;;;;;;;22.67;41.63;98235.66;4143495;28;20205;-53
2023/06/13 08:14:14;;;;;;;4.95;2.60;;;;;;;22.52;41.69;98239.00;4144200;28;20224;-51
2023/06/13 08:16:16;;;;;;;1.75;1.58;;;;;;;22.74;41.51;98230.38;4137587;28;20205;-50
2023/06/13 08:18:18;;;;;;;4.35;2.17;;;;;;;22.80;40.85;98235.44;4138712;28;20204;-50
2023/06/13 08:20:19;;;;;;;7.05;2.25;;;;;;;22.76;41.35;98223.31;4138712;28;20749;-52
2023/06/13 08:22:21;;;;;;;3.15;2.17;;;;;;;22.95;41.74;98225.66;4136452;28;20245;-52
2023/06/13 08:24:23;;;;;;;3.05;2.40;;;;;;;23.29;40.15;98237.47;4138015;28;20224;-50
2023/06/13 08:26:25;;;;;;;1.80;1.60;;;;;;;23.46;39.97;98239.31;4142060;28;20212;-50
2023/06/13 08:28:27;;;;;;;2.20;1.98;;;;;;;23.57;39.83;98215.41;4135016;28;20296;-51
2023/06/13 08:30:29;;;;;;;1.70;1.60;;;;;;;23.54;39.20;98222.50;4150392;28;20208;-50
2023/06/13 08:32:31;;;;;;;2.67;2.10;;;;;;;23.54;39.79;98216.91;4136838;28;20223;-50
2023/06/13 08:34:33;;;;;;;3.75;2.33;;;;;;;23.15;39.04;98213.72;4142408;28;20236;-49
2023/06/13 08:36:36;;;;;;;5.80;2.30;;;;;;;23.60;39.51;98220.31;4126410;28;20233;-50
2023/06/13 08:38:38;;;;;;;9.75;2.55;;;;;;;23.59;39.38;98224.25;4135076;28;20205;-50
2023/06/13 08:40:52;;;;;;;8.48;2.15;;;;;;;23.30;39.11;98232.72;4145085;28;20234;-50
2023/06/13 08:42:53;;;;;;;3.53;2.38;;;;;;;23.28;38.95;98230.25;4142153;28;20213;-49
2023/06/13 08:44:56;;;;;;;4.55;2.78;;;;;;;23.35;38.71;98219.34;4132806;28;20304;-51
2023/06/13 08:46:57;;;;;;;2.08;1.90;;;;;;;23.64;38.91;98224.06;4151431;28;20239;-51
2023/06/13 08:48:59;;;;;;;2.40;2.15;;;;;;;23.71;39.15;98232.72;4142963;28;20243;-50
2023/06/13 08:51:03;;;;;;;2.90;2.30;;;;;;;23.53;38.95;98222.84;4173902;28;20215;-50
2023/06/13 08:53:06;;;;;;;5.50;3.08;;;;;;;23.57;38.83;98227.38;4137680;28;20212;-52
2023/06/13 08:55:12;;;;;;;5.10;2.40;;;;;;;23.63;38.35;98219.63;4167218;28;20220;-49
2023/06/13 08:57:36;;;;;;;3.33;2.33;;;;;;;23.78;37.91;98217.00;4151294;28;20232;-49
2023/06/13 08:59:39;;;;;;;5.68;2.45;;;;;;;23.67;38.16;98216.63;4167172;28;20212;-50
2023/06/13 09:01:43;;;;;;;3.10;2.72;;;;;;;24.09;38.19;98223.81;4138021;28;20216;-52
2023/06/13 09:03:46;;;;;;;2.35;2.15;;;;;;;24.49;37.95;98205.25;4134335;28;20211;-49
2023/06/13 09:05:49;;;;;;;3.10;2.10;;;;;;;24.43;37.39;98205.81;4165765;28;20212;-50
2023/06/13 09:07:51;;;;;;;2.55;1.98;;;;;;;24.05;36.06;98214.47;4149999;28;20463;-49
2023/06/13 09:09:53;;;;;;;2.60;2.10;;;;;;;23.79;36.89;98213.06;4134588;28;20209;-50
2023/06/13 09:11:58;;;;;;;3.78;2.33;;;;;;;23.83;36.50;98216.81;4118477;28;20228;-49
2023/06/13 09:14:02;;;;;;;4.47;2.33;;;;;;;24.30;36.01;98213.38;4141525;28;20229;-50
2023/06/13 09:16:04;;;;;;;3.95;2.38;;;;;;;24.37;35.88;98210.84;4134642;28;20589;-49
2023/06/13 09:18:06;;;;;;;4.30;1.95;;;;;;;24.59;36.64;98204.03;4168860;28;20245;-50
2023/06/13 09:20:08;;;;;;;4.20;2.72;;;;;;;24.57;36.52;98209.97;4123016;28;20627;-51
2023/06/13 09:22:10;;;;;;;3.92;2.55;;;;;;;24.16;36.45;98215.69;4135220;28;20233;-51
2023/06/13 09:24:12;;;;;;;8.20;2.28;;;;;;;24.48;36.63;98198.03;4140542;28;20228;-50
2023/06/13 09:26:17;;;;;;;6.43;2.20;;;;;;;24.77;36.56;98197.00;4153604;28;20732;-49
2023/06/13 09:28:40;;;;;;;5.45;2.38;;;;;;;24.85;36.63;98188.50;4134546;28;20765;-49
2023/06/13 09:30:45;;;;;;;9.27;3.20;;;;;;;24.53;36.72;98199.78;4169495;28;20204;-50
2023/06/13 09:32:51;;;;;;;2.28;2.08;;;;;;;24.76;36.38;98192.59;4152455;28;20216;-50
2023/06/13 09:34:53;;;;;;;3.03;2.70;;;;;;;24.83;36.59;98204.84;4152713;28;20320;-49
2023/06/13 09:36:59;;;;;;;9.20;2.60;;;;;;;24.41;36.45;98214.56;4136980;28;20220;-50
2023/06/13 09:39:03;;;;;;;3.17;2.53;;;;;;;24.45;36.80;98214.72;4145387;28;20223;-50
2023/06/13 09:41:06;;;;;;;3.22;2.20;;;;;;;24.94;36.62;98205.19;4151660;28;20236;-49